Time;durP1;ratioP1;P1;durP2;ratioP2;P2;SDS_P1;SDS_P2;PMS_P1;PMS_P2;Temp;Humidity;BMP_temperature;BMP_pressure;BME280_temperature;BME280_humidity;BME280_pressure;Samples;Min_cycle;Max_cycle;Signal;HPM_P1;HPM_P2
2021/07/23 00:00:35;;;;;;;12.55;8.30;;;19.70;99.90;;;;;;5063243;28;20025;-70
2021/07/23 00:03:01;;;;;;;13.32;8.98;;;19.70;99.90;;;;;;5048126;28;20012;-70
2021/07/23 00:05:27;;;;;;;12.50;8.45;;;19.60;99.90;;;;;;5047125;28;20036;-69
2021/07/23 00:07:52;;;;;;;12.63;9.35;;;19.60;99.90;;;;;;5057106;28;20024;-70
2021/07/23 00:10:18;;;;;;;14.88;9.02;;;19.50;99.90;;;;;;5061785;28;20036;-69
2021/07/23 00:12:44;;;;;;;14.65;9.07;;;19.50;99.90;;;;;;5047645;28;20539;-69
2021/07/23 00:15:10;;;;;;;12.35;9.15;;;19.50;99.90;;;;;;5054437;28;20026;-70
2021/07/23 00:17:35;;;;;;;14.25;9.30;;;19.40;99.90;;;;;;5052944;28;20017;-69
2021/07/23 00:20:01;;;;;;;13.20;9.20;;;19.40;99.90;;;;;;5044087;28;20033;-69
2021/07/23 00:22:27;;;;;;;15.18;9.60;;;19.40;99.90;;;;;;5055607;28;20377;-69
2021/07/23 00:24:52;;;;;;;12.02;9.02;;;19.40;99.90;;;;;;5058954;28;20043;-70
2021/07/23 00:27:18;;;;;;;13.38;10.10;;;19.30;99.90;;;;;;5049074;28;20485;-69
2021/07/23 00:29:44;;;;;;;11.48;8.85;;;19.30;99.90;;;;;;5048495;28;20108;-70
2021/07/23 00:32:09;;;;;;;14.50;9.80;;;19.30;99.90;;;;;;5057260;28;20025;-69
2021/07/23 00:34:35;;;;;;;15.27;9.35;;;19.20;99.90;;;;;;5064990;28;20029;-69
2021/07/23 00:37:01;;;;;;;16.35;9.98;;;19.20;99.90;;;;;;5055541;28;20028;-69
2021/07/23 00:39:26;;;;;;;16.58;11.13;;;19.10;99.90;;;;;;5047811;28;20026;-70
2021/07/23 00:41:52;;;;;;;12.75;9.80;;;19.10;99.90;;;;;;5053693;28;20165;-69
2021/07/23 00:44:18;;;;;;;14.20;10.07;;;19.10;99.90;;;;;;5064158;28;20032;-69
2021/07/23 00:46:45;;;;;;;14.38;8.93;;;19.00;99.90;;;;;;5051909;28;20033;-69
2021/07/23 00:49:12;;;;;;;14.35;8.90;;;19.00;99.90;;;;;;5058631;28;20025;-69
2021/07/23 00:51:37;;;;;;;12.93;9.00;;;19.00;99.90;;;;;;5058652;28;20427;-69
2021/07/23 00:54:05;;;;;;;17.38;8.70;;;19.00;99.90;;;;;;5051780;28;20099;-69
2021/07/23 00:56:31;;;;;;;13.90;9.63;;;19.00;99.90;;;;;;5053031;28;20021;-70
2021/07/23 00:58:59;;;;;;;13.50;9.65;;;19.00;99.90;;;;;;5057396;28;21070;-69
2021/07/23 01:01:25;;;;;;;13.32;10.38;;;18.90;99.90;;;;;;5068064;28;20061;-69
2021/07/23 01:03:51;;;;;;;17.38;9.20;;;18.90;99.90;;;;;;5051716;28;20372;-69
2021/07/23 01:06:16;;;;;;;12.70;9.05;;;18.90;99.90;;;;;;5058852;28;20112;-69
2021/07/23 01:08:42;;;;;;;15.25;9.77;;;18.90;99.90;;;;;;5057094;28;20035;-69
2021/07/23 01:11:08;;;;;;;16.95;10.15;;;18.80;99.90;;;;;;5053735;28;20033;-69
2021/07/23 01:13:34;;;;;;;13.38;9.45;;;18.70;99.90;;;;;;5058881;28;20025;-69
2021/07/23 01:16:01;;;;;;;14.43;9.48;;;18.80;99.90;;;;;;5051529;28;20125;-70
2021/07/23 01:18:28;;;;;;;13.02;9.05;;;18.70;99.90;;;;;;5049682;28;20428;-69
2021/07/23 01:20:54;;;;;;;15.02;9.98;;;18.70;99.90;;;;;;5063296;28;20032;-69
2021/07/23 01:23:32;;;;;;;14.80;9.55;;;18.70;99.90;;;;;;5056608;28;20456;-69
2021/07/23 01:25:58;;;;;;;12.13;9.50;;;18.60;99.90;;;;;;5048393;28;20037;-69
2021/07/23 01:28:26;;;;;;;15.88;9.27;;;18.60;99.90;;;;;;5055536;28;20037;-69
2021/07/23 01:30:51;;;;;;;16.95;9.98;;;18.60;99.90;;;;;;5065697;28;20127;-69
2021/07/23 01:33:17;;;;;;;12.85;9.25;;;18.60;99.90;;;;;;5060765;28;20442;-69
2021/07/23 01:35:43;;;;;;;13.48;9.27;;;18.50;99.90;;;;;;5058262;28;20230;-69
2021/07/23 01:38:10;;;;;;;14.32;9.95;;;18.50;99.90;;;;;;5054837;28;20411;-69
2021/07/23 01:40:35;;;;;;;12.98;9.70;;;18.50;99.90;;;;;;5060630;28;20035;-69
2021/07/23 01:43:01;;;;;;;15.13;9.60;;;18.50;99.90;;;;;;5047562;28;20021;-69
2021/07/23 01:45:27;;;;;;;18.52;9.98;;;18.50;99.90;;;;;;5055709;28;20033;-69
2021/07/23 01:47:53;;;;;;;14.40;10.30;;;18.40;99.90;;;;;;5059134;28;20501;-69
2021/07/23 01:50:19;;;;;;;13.70;9.85;;;18.40;99.90;;;;;;5065740;28;20029;-69
2021/07/23 01:52:45;;;;;;;14.68;9.73;;;18.40;99.90;;;;;;5049760;28;20021;-69
2021/07/23 01:55:11;;;;;;;13.38;9.52;;;18.30;99.90;;;;;;5057862;28;20040;-69
2021/07/23 01:57:37;;;;;;;13.45;9.10;;;18.30;99.90;;;;;;5048354;28;20017;-69
2021/07/23 02:00:06;;;;;;;16.45;10.70;;;18.30;99.90;;;;;;5058114;28;20017;-69
2021/07/23 02:02:31;;;;;;;15.18;9.88;;;18.20;99.90;;;;;;5070031;28;20020;-69
2021/07/23 02:04:59;;;;;;;11.60;9.32;;;18.20;99.90;;;;;;5050444;28;20017;-69
2021/07/23 02:07:27;;;;;;;19.55;10.65;;;18.10;99.90;;;;;;5058034;28;20052;-69
2021/07/23 02:09:52;;;;;;;15.05;10.20;;;18.10;99.90;;;;;;5045536;28;20018;-69
2021/07/23 02:12:18;;;;;;;13.27;10.95;;;18.10;99.90;;;;;;5059545;28;20043;-69
2021/07/23 02:14:44;;;;;;;13.25;9.30;;;18.10;99.90;;;;;;5049589;28;20531;-69
2021/07/23 02:17:10;;;;;;;13.55;9.68;;;18.00;99.90;;;;;;5050275;28;20033;-69
2021/07/23 02:19:35;;;;;;;15.27;10.02;;;18.10;99.90;;;;;;5065409;28;20091;-69
2021/07/23 02:22:01;;;;;;;14.65;10.02;;;18.00;99.90;;;;;;5057433;28;20033;-69
2021/07/23 02:24:26;;;;;;;14.13;9.50;;;18.00;99.90;;;;;;5048780;28;20096;-70
2021/07/23 02:26:53;;;;;;;11.48;9.15;;;17.90;99.90;;;;;;5056690;28;20060;-69
2021/07/23 02:29:19;;;;;;;12.05;9.65;;;17.90;99.90;;;;;;5049021;28;20009;-69
2021/07/23 02:31:45;;;;;;;12.38;9.63;;;17.90;99.90;;;;;;5059587;28;20392;-69
2021/07/23 02:34:11;;;;;;;13.77;9.55;;;17.90;99.90;;;;;;5058723;28;20028;-69
2021/07/23 02:36:37;;;;;;;13.85;9.13;;;17.80;99.90;;;;;;5058203;28;20476;-69
2021/07/23 02:39:03;;;;;;;13.55;9.23;;;17.80;99.90;;;;;;5055773;28;20062;-69
2021/07/23 02:41:29;;;;;;;12.77;9.52;;;17.70;99.90;;;;;;5057805;28;20523;-69
2021/07/23 02:43:54;;;;;;;16.80;11.00;;;17.70;99.90;;;;;;5051758;28;20028;-69
2021/07/23 02:46:20;;;;;;;11.32;9.18;;;17.70;99.90;;;;;;5058827;28;20029;-69
2021/07/23 02:48:46;;;;;;;14.00;10.38;;;17.60;99.90;;;;;;5053597;28;20029;-69
2021/07/23 02:51:12;;;;;;;14.25;9.73;;;17.70;99.90;;;;;;5050990;28;20032;-69
2021/07/23 02:53:37;;;;;;;15.63;9.95;;;17.60;99.90;;;;;;5060406;28;20039;-69
2021/07/23 02:56:04;;;;;;;15.10;10.85;;;17.60;99.90;;;;;;5048468;28;20032;-69
2021/07/23 02:58:30;;;;;;;12.52;9.05;;;17.60;99.90;;;;;;5055092;28;20058;-69
2021/07/23 03:00:55;;;;;;;12.68;10.10;;;17.50;99.90;;;;;;5050617;28;20033;-69
2021/07/23 03:03:21;;;;;;;16.13;10.32;;;17.50;99.90;;;;;;5056313;28;20017;-69
2021/07/23 03:05:47;;;;;;;15.35;10.18;;;17.50;99.90;;;;;;5058427;28;20033;-69
2021/07/23 03:08:12;;;;;;;14.63;10.82;;;17.40;99.90;;;;;;5054612;28;20029;-69
2021/07/23 03:10:38;;;;;;;12.90;10.07;;;17.40;99.90;;;;;;5059984;28;20025;-69
2021/07/23 03:13:04;;;;;;;14.43;10.40;;;17.40;99.90;;;;;;5055892;28;20036;-69
2021/07/23 03:15:29;;;;;;;13.23;9.82;;;17.30;99.90;;;;;;5061476;28;20048;-69
2021/07/23 03:17:55;;;;;;;13.77;10.82;;;17.30;99.90;;;;;;5051384;28;20401;-69
2021/07/23 03:20:21;;;;;;;15.07;10.52;;;17.30;99.90;;;;;;5048766;28;20097;-69
2021/07/23 03:22:46;;;;;;;13.48;9.73;;;17.20;99.90;;;;;;5059937;28;20033;-69
2021/07/23 03:25:12;;;;;;;18.40;11.93;;;17.20;99.90;;;;;;5050610;28;20473;-69
2021/07/23 03:27:38;;;;;;;14.20;11.30;;;17.20;99.90;;;;;;5043391;28;20107;-69
2021/07/23 03:30:06;;;;;;;14.20;11.13;;;17.20;99.90;;;;;;5051738;28;20450;-69
2021/07/23 03:32:31;;;;;;;14.30;10.80;;;17.10;99.90;;;;;;5050790;28;20029;-69
2021/07/23 03:34:57;;;;;;;14.18;11.15;;;17.10;99.90;;;;;;5048023;28;20106;-69
2021/07/23 03:37:22;;;;;;;16.10;10.50;;;17.10;99.90;;;;;;5053804;28;20057;-69
2021/07/23 03:39:48;;;;;;;13.25;9.45;;;17.10;99.90;;;;;;5051723;28;20111;-69
2021/07/23 03:42:14;;;;;;;15.82;10.90;;;17.10;99.90;;;;;;5048894;28;20108;-69
2021/07/23 03:44:39;;;;;;;17.52;10.85;;;17.10;99.90;;;;;;5051559;28;20063;-69
2021/07/23 03:47:05;;;;;;;17.63;11.27;;;17.00;99.90;;;;;;5050142;28;20485;-69
2021/07/23 03:49:30;;;;;;;14.15;10.77;;;17.00;99.90;;;;;;5052595;28;20012;-70
2021/07/23 03:51:58;;;;;;;15.15;10.32;;;17.00;99.90;;;;;;5052194;28;20025;-69
2021/07/23 03:54:24;;;;;;;15.05;10.77;;;17.00;99.90;;;;;;5056794;28;20029;-69
2021/07/23 03:56:49;;;;;;;21.88;12.27;;;17.00;99.90;;;;;;5063468;28;20025;-69
2021/07/23 03:59:15;;;;;;;17.15;11.15;;;16.90;99.90;;;;;;5051615;28;20074;-69
2021/07/23 04:01:41;;;;;;;13.45;10.40;;;16.90;99.90;;;;;;5052300;28;20024;-70
2021/07/23 04:04:06;;;;;;;15.45;10.50;;;16.90;99.90;;;;;;5048757;28;20103;-69
2021/07/23 04:06:32;;;;;;;21.30;13.45;;;16.80;99.90;;;;;;5054185;28;20405;-69
2021/07/23 04:08:58;;;;;;;12.15;9.80;;;16.90;99.90;;;;;;5055553;28;20154;-70
2021/07/23 04:11:29;;;;;;;13.05;10.50;;;16.90;99.90;;;;;;5052268;28;20021;-70
2021/07/23 04:13:55;;;;;;;13.93;10.48;;;16.90;99.90;;;;;;5056919;28;20138;-70
2021/07/23 04:16:20;;;;;;;14.38;10.55;;;16.90;99.90;;;;;;5059986;28;20125;-69
2021/07/23 04:18:46;;;;;;;16.50;11.30;;;16.80;99.90;;;;;;5046465;28;20412;-69
2021/07/23 04:21:11;;;;;;;16.77;11.48;;;16.80;99.90;;;;;;5055843;28;20025;-70
2021/07/23 04:23:37;;;;;;;14.48;10.32;;;16.80;99.90;;;;;;5061322;28;20427;-69
2021/07/23 04:26:04;;;;;;;14.68;10.77;;;16.80;99.90;;;;;;5052964;28;20033;-70
2021/07/23 04:28:29;;;;;;;13.68;10.73;;;16.80;99.90;;;;;;5062866;28;20025;-69
2021/07/23 04:30:55;;;;;;;15.80;11.02;;;16.80;99.90;;;;;;5062838;28;20027;-70
2021/07/23 04:33:21;;;;;;;14.57;11.07;;;16.70;99.90;;;;;;5050334;28;20090;-70
2021/07/23 04:35:46;;;;;;;13.73;10.90;;;16.70;99.90;;;;;;5059636;28;20128;-69
2021/07/23 04:38:12;;;;;;;15.45;10.57;;;16.70;99.90;;;;;;5066709;28;20012;-70
2021/07/23 04:40:37;;;;;;;16.05;11.35;;;16.70;99.90;;;;;;5049891;28;20033;-70
2021/07/23 04:43:03;;;;;;;16.42;11.02;;;16.70;99.90;;;;;;5056135;28;20416;-69
2021/07/23 04:45:29;;;;;;;16.35;11.52;;;16.70;99.90;;;;;;5057531;28;20036;-72
2021/07/23 04:47:54;;;;;;;18.77;10.57;;;16.80;99.90;;;;;;5062597;28;20033;-70
2021/07/23 04:50:20;;;;;;;13.05;10.60;;;16.70;99.90;;;;;;5062450;28;20116;-70
2021/07/23 04:52:45;;;;;;;15.70;11.25;;;16.70;99.90;;;;;;5066159;28;20069;-70
2021/07/23 04:55:12;;;;;;;12.88;10.27;;;16.70;99.90;;;;;;5059083;28;20465;-70
2021/07/23 04:57:46;;;;;;;15.13;10.82;;;16.70;99.90;;;;;;5061284;28;20027;-69
2021/07/23 05:00:12;;;;;;;14.35;11.05;;;16.70;99.90;;;;;;5064404;28;20025;-69
2021/07/23 05:02:41;;;;;;;19.65;12.40;;;16.70;99.90;;;;;;5046340;28;20028;-70
2021/07/23 05:05:13;;;;;;;19.98;11.85;;;16.70;99.90;;;;;;5059014;28;20021;-71
2021/07/23 05:07:39;;;;;;;15.77;11.43;;;16.70;99.90;;;;;;5064689;28;20118;-72
2021/07/23 05:10:06;;;;;;;18.70;12.18;;;16.70;99.90;;;;;;5052242;28;20021;-71
2021/07/23 05:12:31;;;;;;;14.48;10.82;;;16.70;99.90;;;;;;5059666;28;20029;-70
2021/07/23 05:14:57;;;;;;;17.42;11.85;;;16.70;99.90;;;;;;5048957;28;20032;-70
2021/07/23 05:17:24;;;;;;;15.82;11.50;;;16.70;99.90;;;;;;5061215;28;20015;-70
2021/07/23 05:19:49;;;;;;;14.20;11.48;;;16.80;99.90;;;;;;5048870;28;20473;-71
2021/07/23 05:22:15;;;;;;;15.80;11.52;;;16.80;99.90;;;;;;5054857;28;20060;-71
2021/07/23 05:24:41;;;;;;;15.90;12.25;;;16.80;99.90;;;;;;5063367;28;20036;-71
2021/07/23 05:27:06;;;;;;;16.83;11.65;;;16.90;99.90;;;;;;5052651;28;20045;-71
2021/07/23 05:29:32;;;;;;;18.67;11.80;;;16.80;99.90;;;;;;5073152;28;20469;-71
2021/07/23 05:31:57;;;;;;;16.33;12.13;;;16.80;99.90;;;;;;5054599;28;20032;-71
2021/07/23 05:34:23;;;;;;;16.33;11.85;;;16.90;99.90;;;;;;5049221;28;20390;-71
2021/07/23 05:36:49;;;;;;;17.83;12.85;;;16.90;99.90;;;;;;5055676;28;20044;-71
2021/07/23 05:39:15;;;;;;;20.42;13.05;;;16.90;99.90;;;;;;5064750;28;20013;-71
2021/07/23 05:41:41;;;;;;;16.50;13.25;;;16.90;99.90;;;;;;5060187;28;20487;-71
2021/07/23 05:44:06;;;;;;;17.27;12.88;;;16.80;99.90;;;;;;5059050;28;20153;-71
2021/07/23 05:46:32;;;;;;;19.48;13.40;;;17.00;99.90;;;;;;5058284;28;20020;-71
2021/07/23 05:48:58;;;;;;;17.05;12.93;;;16.90;99.90;;;;;;5067823;28;20107;-71
2021/07/23 05:51:24;;;;;;;18.20;12.77;;;17.00;99.90;;;;;;5061169;28;20056;-71
2021/07/23 05:53:49;;;;;;;19.65;13.38;;;17.00;99.90;;;;;;5057045;28;20039;-71
2021/07/23 05:56:15;;;;;;;17.25;13.23;;;17.00;99.90;;;;;;5050690;28;20029;-71
2021/07/23 05:58:41;;;;;;;20.60;14.05;;;17.00;99.90;;;;;;5059679;28;20089;-71
2021/07/23 06:01:07;;;;;;;19.58;12.27;;;17.00;99.90;;;;;;5058732;28;20029;-71
2021/07/23 06:03:37;;;;;;;20.40;12.63;;;17.10;99.90;;;;;;5051335;28;20025;-71
2021/07/23 06:06:03;;;;;;;18.77;13.18;;;17.10;99.90;;;;;;5064281;28;20097;-70
2021/07/23 06:08:30;;;;;;;20.83;14.07;;;17.10;99.90;;;;;;5056169;28;20036;-70
2021/07/23 06:10:55;;;;;;;17.67;12.32;;;17.00;99.90;;;;;;5058227;28;20092;-71
2021/07/23 06:13:21;;;;;;;20.13;13.18;;;17.10;99.90;;;;;;5066122;28;20112;-71
2021/07/23 06:15:47;;;;;;;21.45;14.05;;;17.10;99.90;;;;;;5057364;28;20022;-71
2021/07/23 06:18:13;;;;;;;18.98;12.95;;;17.20;99.90;;;;;;5059060;28;20035;-71
2021/07/23 06:20:40;;;;;;;20.77;13.30;;;17.20;99.90;;;;;;5058910;28;20100;-71
2021/07/23 06:23:06;;;;;;;20.02;13.65;;;17.10;99.90;;;;;;5060724;28;20017;-73
2021/07/23 06:25:31;;;;;;;16.85;12.63;;;17.20;99.90;;;;;;5058960;28;20167;-71
2021/07/23 06:27:57;;;;;;;17.85;12.43;;;17.30;99.90;;;;;;5049538;28;20590;-71
2021/07/23 06:30:23;;;;;;;19.30;13.63;;;17.30;99.90;;;;;;5060101;28;20101;-71
2021/07/23 06:32:48;;;;;;;18.13;13.40;;;17.30;99.90;;;;;;5042951;28;20100;-70
2021/07/23 06:35:14;;;;;;;19.23;12.80;;;17.40;99.90;;;;;;5053616;28;20119;-71
2021/07/23 06:37:39;;;;;;;18.50;12.93;;;17.50;99.90;;;;;;5048299;28;20028;-70
2021/07/23 06:40:05;;;;;;;17.70;13.60;;;17.50;99.90;;;;;;5055801;28;20095;-71
2021/07/23 06:42:33;;;;;;;19.17;13.30;;;17.60;99.90;;;;;;5063101;28;20031;-71
2021/07/23 06:44:59;;;;;;;21.52;13.15;;;17.60;99.90;;;;;;5053175;28;20017;-71
2021/07/23 06:47:24;;;;;;;20.83;14.65;;;17.70;99.90;;;;;;5044007;28;20040;-71
2021/07/23 06:49:53;;;;;;;17.23;13.00;;;17.70;99.90;;;;;;5064035;28;20441;-72
2021/07/23 06:52:19;;;;;;;15.80;11.50;;;17.80;99.90;;;;;;5058957;28;20032;-72
2021/07/23 06:54:45;;;;;;;21.98;12.88;;;17.80;99.90;;;;;;5052143;28;20020;-71
2021/07/23 06:57:11;;;;;;;23.13;13.15;;;17.90;99.90;;;;;;5070275;28;20052;-71
2021/07/23 06:59:37;;;;;;;21.13;12.65;;;17.90;99.90;;;;;;5051840;28;20061;-70
2021/07/23 07:02:03;;;;;;;16.35;13.63;;;18.00;99.90;;;;;;5049240;28;20108;-70
2021/07/23 07:04:30;;;;;;;17.15;12.18;;;18.10;99.90;;;;;;5052328;28;20381;-70
2021/07/23 07:06:56;;;;;;;16.23;12.93;;;18.10;99.90;;;;;;5062605;28;20029;-70
2021/07/23 07:09:26;;;;;;;18.58;12.50;;;18.20;99.90;;;;;;5050409;28;20108;-71
2021/07/23 07:11:52;;;;;;;14.93;12.40;;;18.40;99.90;;;;;;5055330;28;20108;-70
2021/07/23 07:14:18;;;;;;;17.05;12.80;;;18.50;99.90;;;;;;5051889;28;20127;-70
2021/07/23 07:16:44;;;;;;;24.20;12.75;;;18.50;99.90;;;;;;5039530;28;20029;-70
2021/07/23 07:19:10;;;;;;;17.05;11.20;;;18.70;99.90;;;;;;5032487;28;20039;-70
2021/07/23 07:21:36;;;;;;;17.75;12.10;;;18.70;99.90;;;;;;5035346;28;20027;-70
2021/07/23 07:24:01;;;;;;;19.60;12.05;;;18.70;99.90;;;;;;5044328;28;20029;-71
2021/07/23 07:26:28;;;;;;;16.13;11.55;;;18.90;99.90;;;;;;5053652;28;20029;-70
2021/07/23 07:28:54;;;;;;;13.48;10.75;;;19.00;99.90;;;;;;5047108;28;20556;-70
2021/07/23 07:31:19;;;;;;;19.00;12.90;;;19.10;99.90;;;;;;5045757;28;20031;-70
2021/07/23 07:33:45;;;;;;;14.77;11.73;;;19.20;99.90;;;;;;5044942;28;20025;-70
2021/07/23 07:36:17;;;;;;;16.08;11.85;;;19.20;99.90;;;;;;5045817;28;20029;-70
2021/07/23 07:38:44;;;;;;;20.45;11.40;;;19.30;99.90;;;;;;5041025;28;20032;-71
2021/07/23 07:41:14;;;;;;;16.48;12.02;;;19.40;99.90;;;;;;5048377;28;20466;-71
2021/07/23 07:43:40;;;;;;;20.85;11.60;;;19.60;99.90;;;;;;5044447;28;20131;-70
2021/07/23 07:46:05;;;;;;;15.85;11.23;;;19.60;99.90;;;;;;5051602;28;20029;-70
2021/07/23 07:48:31;;;;;;;15.10;12.57;;;19.70;99.90;;;;;;5038580;28;20036;-70
2021/07/23 07:50:56;;;;;;;15.25;11.70;;;19.80;99.90;;;;;;5040919;28;20025;-71
2021/07/23 07:53:22;;;;;;;16.75;12.68;;;19.80;99.90;;;;;;5049977;28;20039;-71
2021/07/23 07:55:48;;;;;;;16.85;10.93;;;20.00;99.90;;;;;;5048072;28;20017;-70
2021/07/23 07:58:13;;;;;;;15.82;11.55;;;19.90;99.90;;;;;;5039383;28;20094;-70
2021/07/23 08:00:39;;;;;;;13.55;11.02;;;20.00;99.90;;;;;;5046555;28;20108;-70
2021/07/23 08:03:05;;;;;;;12.93;10.88;;;20.10;99.90;;;;;;5048427;28;20036;-71
2021/07/23 08:05:31;;;;;;;16.88;11.48;;;20.10;99.90;;;;;;5050354;28;20473;-71
2021/07/23 08:07:58;;;;;;;14.98;11.38;;;20.30;99.90;;;;;;5044728;28;20060;-71
2021/07/23 08:10:25;;;;;;;17.65;11.38;;;20.40;99.90;;;;;;5044293;28;20032;-71
2021/07/23 08:12:52;;;;;;;16.95;10.63;;;20.40;99.90;;;;;;5046041;28;20025;-70
2021/07/23 08:15:17;;;;;;;17.13;11.20;;;20.40;99.90;;;;;;5048203;28;20017;-70
2021/07/23 08:17:43;;;;;;;13.90;10.35;;;20.40;99.90;;;;;;5049969;28;20032;-71
2021/07/23 08:20:10;;;;;;;15.30;9.80;;;20.50;99.90;;;;;;5051315;28;20484;-70
2021/07/23 08:22:36;;;;;;;12.93;9.65;;;20.50;99.90;;;;;;5047999;28;20039;-71
2021/07/23 08:25:02;;;;;;;12.82;9.02;;;20.60;99.90;;;;;;5051788;28;20025;-71
2021/07/23 08:27:28;;;;;;;14.27;9.82;;;20.70;99.90;;;;;;5053391;28;20044;-71
2021/07/23 08:29:54;;;;;;;14.88;10.90;;;20.80;99.90;;;;;;5042166;28;20017;-71
2021/07/23 08:32:20;;;;;;;13.50;8.30;;;20.90;99.90;;;;;;5050208;28;20028;-71
2021/07/23 08:34:46;;;;;;;13.25;9.50;;;20.90;99.90;;;;;;5051059;28;20047;-71
2021/07/23 08:37:11;;;;;;;12.27;8.30;;;20.90;99.90;;;;;;5052290;28;20396;-71
2021/07/23 08:39:37;;;;;;;11.95;8.63;;;21.00;99.90;;;;;;5051611;28;20024;-71
2021/07/23 08:42:23;;;;;;;14.07;9.05;;;21.10;99.90;;;;;;5051007;28;20025;-71
2021/07/23 08:44:49;;;;;;;13.63;9.30;;;21.20;99.90;;;;;;5046399;28;20152;-70
2021/07/23 08:47:15;;;;;;;11.43;8.43;;;21.20;99.90;;;;;;5046978;28;20029;-71
2021/07/23 08:49:40;;;;;;;12.93;9.35;;;21.20;99.90;;;;;;5049645;28;20033;-71
2021/07/23 08:52:06;;;;;;;13.13;8.95;;;21.40;99.90;;;;;;5046687;28;20037;-70
2021/07/23 08:54:32;;;;;;;14.75;7.80;;;21.40;99.90;;;;;;5048625;28;20070;-70
2021/07/23 08:56:58;;;;;;;8.88;7.97;;;21.50;99.90;;;;;;5050677;28;20025;-71
2021/07/23 08:59:24;;;;;;;13.15;9.82;;;21.50;99.90;;;;;;5047693;28;20028;-70
2021/07/23 09:01:57;;;;;;;10.02;8.60;;;21.50;99.90;;;;;;5043459;28;20143;-71
2021/07/23 09:04:34;;;;;;;8.48;6.80;;;21.60;99.90;;;;;;5048985;28;20020;-70
2021/07/23 09:07:12;;;;;;;10.60;7.55;;;21.70;99.90;;;;;;5052910;28;20041;-71
2021/07/23 09:09:38;;;;;;;12.65;8.23;;;21.80;99.90;;;;;;5049826;28;20040;-70
2021/07/23 09:12:04;;;;;;;12.93;9.20;;;21.90;99.90;;;;;;5048913;28;20371;-70
2021/07/23 09:14:29;;;;;;;11.40;7.25;;;22.00;99.90;;;;;;5057906;28;21398;-71
2021/07/23 09:16:55;;;;;;;13.15;9.43;;;22.20;99.90;;;;;;5059822;28;20024;-70
2021/07/23 09:19:21;;;;;;;10.13;8.23;;;22.20;99.90;;;;;;5054359;28;20500;-71
2021/07/23 09:21:54;;;;;;;11.32;8.68;;;22.40;99.90;;;;;;5053264;28;20079;-71
2021/07/23 09:24:19;;;;;;;;;;;22.40;99.90;;;;;;5052913;28;20048;-71
2021/07/23 09:26:46;;;;;;;13.90;9.35;;;22.60;99.90;;;;;;5050104;28;19993;-71
2021/07/23 09:29:13;;;;;;;10.30;8.02;;;22.60;99.90;;;;;;5046111;28;20025;-70
2021/07/23 09:31:39;;;;;;;11.52;9.43;;;22.70;99.90;;;;;;5047006;28;20508;-71
2021/07/23 09:34:05;;;;;;;12.75;9.23;;;22.90;99.90;;;;;;5048390;28;20029;-70
2021/07/23 09:36:32;;;;;;;14.48;8.05;;;22.90;99.90;;;;;;5052982;28;20067;-70
2021/07/23 09:39:04;;;;;;;11.10;7.97;;;23.10;99.90;;;;;;5050955;28;20267;-71
2021/07/23 09:41:30;;;;;;;9.05;7.38;;;23.30;99.90;;;;;;5048125;28;20092;-71
2021/07/23 09:43:58;;;;;;;13.52;8.38;;;23.40;99.90;;;;;;5044606;28;20064;-72
2021/07/23 09:46:26;;;;;;;13.20;8.25;;;23.60;99.90;;;;;;5058364;28;20384;-71
2021/07/23 09:48:53;;;;;;;9.15;7.00;;;23.60;99.90;;;;;;5058587;28;20036;-70
2021/07/23 09:51:25;;;;;;;10.57;7.20;;;23.80;99.90;;;;;;5052606;28;20025;-71
2021/07/23 09:53:51;;;;;;;12.97;8.67;;;23.90;99.90;;;;;;5049492;28;20037;-70
2021/07/23 09:56:17;;;;;;;9.98;8.13;;;23.80;99.90;;;;;;5045653;28;20404;-71
2021/07/23 09:58:45;;;;;;;11.13;8.85;;;23.90;99.90;;;;;;5047268;28;20044;-71
2021/07/23 10:01:26;;;;;;;12.02;7.32;;;24.20;99.90;;;;;;5053817;28;20035;-71
2021/07/23 10:03:55;;;;;;;9.18;7.65;;;24.30;99.90;;;;;;5055811;28;20025;-70
2021/07/23 10:06:52;;;;;;;10.60;7.68;;;24.20;99.90;;;;;;5058485;28;20028;-70
2021/07/23 10:09:23;;;;;;;18.00;8.35;;;24.20;99.90;;;;;;5050764;28;20538;-71
2021/07/23 10:11:49;;;;;;;13.35;7.63;;;24.40;99.90;;;;;;5060101;28;20031;-71
2021/07/23 10:14:20;;;;;;;12.27;6.90;;;24.60;99.90;;;;;;5060229;28;20093;-70
2021/07/23 10:16:48;;;;;;;6.78;5.80;;;24.70;99.90;;;;;;5054897;28;20021;-71
2021/07/23 10:19:14;;;;;;;7.32;5.82;;;24.80;99.90;;;;;;5055781;28;20032;-71
2021/07/23 10:21:39;;;;;;;8.80;5.40;;;24.90;99.90;;;;;;5055206;28;20096;-70
2021/07/23 10:24:06;;;;;;;8.82;5.80;;;25.00;98.70;;;;;;5047272;28;20108;-70
2021/07/23 10:26:32;;;;;;;8.95;6.85;;;24.90;99.80;;;;;;5052046;28;20024;-70
2021/07/23 10:28:59;;;;;;;8.93;6.35;;;25.10;99.50;;;;;;5051288;28;20029;-70
2021/07/23 10:31:25;;;;;;;9.57;7.13;;;25.10;99.90;;;;;;5052259;28;20021;-71
2021/07/23 10:33:52;;;;;;;11.52;7.38;;;25.00;99.90;;;;;;5052661;28;20068;-71
2021/07/23 10:36:27;;;;;;;9.65;6.88;;;24.90;98.10;;;;;;5048617;28;20032;-70
2021/07/23 10:39:04;;;;;;;8.55;5.22;;;25.20;98.70;;;;;;5050672;28;20202;-70
2021/07/23 10:41:45;;;;;;;6.28;4.75;;;25.30;97.00;;;;;;5051574;28;20022;-70
2021/07/23 10:44:36;;;;;;;6.03;4.63;;;25.30;97.90;;;;;;5054273;28;20539;-71
2021/07/23 10:47:03;;;;;;;5.57;4.53;;;25.50;96.30;;;;;;5055743;28;20033;-70
2021/07/23 10:49:32;;;;;;;5.65;4.70;;;25.60;96.60;;;;;;5046473;28;20024;-70
2021/07/23 10:52:02;;;;;;;8.75;4.93;;;25.60;98.00;;;;;;5058486;28;20433;-71
2021/07/23 10:54:32;;;;;;;6.35;4.32;;;25.60;98.30;;;;;;5046730;28;20028;-71
2021/07/23 10:57:00;;;;;;;5.70;5.18;;;25.60;97.00;;;;;;5054077;28;20043;-71
2021/07/23 10:59:41;;;;;;;6.05;5.20;;;25.50;96.90;;;;;;5047754;28;20017;-71
2021/07/23 11:02:16;;;;;;;5.60;4.85;;;25.70;97.10;;;;;;5045308;28;20038;-71
2021/07/23 11:04:43;;;;;;;4.88;4.40;;;25.80;97.60;;;;;;5055903;28;20112;-71
2021/07/23 11:07:11;;;;;;;10.80;5.22;;;25.70;97.20;;;;;;5050212;28;20127;-71
2021/07/23 11:09:37;;;;;;;7.90;5.63;;;25.70;97.40;;;;;;5049054;28;20021;-71
2021/07/23 11:12:23;;;;;;;8.57;5.85;;;25.60;97.10;;;;;;5059799;28;20028;-71
2021/07/23 11:14:59;;;;;;;7.75;4.90;;;25.80;98.10;;;;;;5051475;28;20126;-71
2021/07/23 11:17:29;;;;;;;6.82;3.92;;;25.80;96.20;;;;;;5035004;28;20022;-71
2021/07/23 11:20:03;;;;;;;7.03;4.07;;;25.80;97.00;;;;;;5057076;28;20052;-71
2021/07/23 11:22:32;;;;;;;3.90;3.50;;;26.00;96.90;;;;;;5053327;28;20025;-70
2021/07/23 11:25:03;;;;;;;4.13;3.33;;;26.00;95.00;;;;;;5044993;28;20558;-71
2021/07/23 11:27:31;;;;;;;4.78;4.25;;;26.10;95.30;;;;;;5040545;28;20062;-70
2021/07/23 11:29:58;;;;;;;8.00;4.43;;;25.90;96.50;;;;;;5060407;28;20025;-71
2021/07/23 11:32:26;;;;;;;7.18;4.80;;;26.10;93.70;;;;;;5051143;28;20025;-71
2021/07/23 11:35:07;;;;;;;4.72;4.30;;;26.10;94.80;;;;;;5051443;28;20086;-71
2021/07/23 11:37:36;;;;;;;6.60;4.40;;;26.20;94.80;;;;;;5040639;28;20035;-71
2021/07/23 11:40:11;;;;;;;7.15;5.28;;;26.40;95.00;;;;;;5056800;28;20020;-71
2021/07/23 11:42:45;;;;;;;8.32;5.45;;;26.60;95.00;;;;;;5063711;28;20024;-70
2021/07/23 11:45:13;;;;;;;6.75;4.72;;;26.70;95.30;;;;;;5065913;28;20027;-70
2021/07/23 11:47:43;;;;;;;10.88;4.47;;;26.30;95.60;;;;;;5041504;28;20033;-69
2021/07/23 11:50:19;;;;;;;5.45;4.57;;;26.40;94.00;;;;;;5061651;28;20021;-69
2021/07/23 11:52:46;;;;;;;7.05;3.90;;;26.40;92.60;;;;;;5053348;28;20420;-69
2021/07/23 11:55:16;;;;;;;3.60;3.33;;;26.50;93.80;;;;;;5059757;28;20029;-69
2021/07/23 11:57:47;;;;;;;4.32;3.92;;;26.60;95.80;;;;;;5057215;28;20468;-69
2021/07/23 12:00:22;;;;;;;4.60;3.85;;;26.50;94.80;;;;;;5059469;28;20044;-69
2021/07/23 12:02:50;;;;;;;4.68;3.70;;;26.50;95.00;;;;;;5044555;28;20103;-69
2021/07/23 12:05:16;;;;;;;4.95;3.70;;;26.70;94.10;;;;;;5047671;28;20064;-69
2021/07/23 12:07:45;;;;;;;5.35;3.97;;;26.80;92.70;;;;;;5050898;28;20039;-69
2021/07/23 12:10:16;;;;;;;5.03;3.45;;;26.90;91.20;;;;;;5049267;28;20155;-69
2021/07/23 12:12:42;;;;;;;5.13;3.55;;;26.90;93.00;;;;;;5052993;28;20012;-69
2021/07/23 12:15:09;;;;;;;4.85;4.00;;;27.10;94.10;;;;;;5048713;28;20017;-69
2021/07/23 12:17:36;;;;;;;7.35;3.92;;;27.00;94.40;;;;;;5054433;28;20167;-69
2021/07/23 12:20:05;;;;;;;8.02;4.03;;;26.90;95.60;;;;;;5063401;28;20013;-69
2021/07/23 12:22:31;;;;;;;8.30;3.88;;;26.90;95.00;;;;;;5061800;28;20040;-69
2021/07/23 12:24:56;;;;;;;8.02;3.83;;;26.90;94.80;;;;;;5059037;28;20021;-69
2021/07/23 12:27:23;;;;;;;3.55;3.08;;;27.10;94.70;;;;;;5058503;28;20098;-69
2021/07/23 12:29:52;;;;;;;5.70;4.25;;;27.10;94.80;;;;;;5062808;28;20461;-69
2021/07/23 12:32:23;;;;;;;6.00;4.10;;;27.00;92.70;;;;;;5063205;28;20093;-69